Glendale, Oregon
Current Conditions -  °F | °C
As of 12:24 AM on Friday 21 Nov 2014 (Local Time) from KSXT Reporting Station
Haze Haze  
Wind Chill: 31°   Ceiling: 2200
Heat Index: 39°   Visibility: 3mi
Dew Point: 39°   Wind: 13mph
Humidity: 100%   Direction: 180°S
Pressure: 29.97"   Gusts: NA
Location:  42.74°N, 123.42°W
Report Text: KSXT 210824Z AUTO 18011KT 3SM BR FEW001 OVC022 04/04 A2997 RMK AO2 T00390039
Loading
Personal Weather Stations






























Interactive Weather Map New forecast layout! Learn more

10-Day Weather Forecast

Advertisements
Track Severe Weather on mobile